sensor_id;sensor_type;location;lat;lon;timestamp;pressure;altitude;pressure_sealevel;temperature;humidity
45941;BME280;31858;46.008;8.978;2023-06-14T00:07:34;94158.53;;;16.28;100.00
45941;BME280;31858;46.008;8.978;2023-06-14T00:17:37;94164.28;;;16.10;100.00
45941;BME280;31858;46.008;8.978;2023-06-14T00:27:39;94151.97;;;15.93;100.00
45941;BME280;31858;46.008;8.978;2023-06-14T00:37:42;94160.16;;;15.66;100.00
45941;BME280;31858;46.008;8.978;2023-06-14T00:47:45;94171.28;;;15.64;100.00
45941;BME280;31858;46.008;8.978;2023-06-14T00:57:48;94157.38;;;15.70;100.00
45941;BME280;31858;46.008;8.978;2023-06-14T01:07:59;94163.03;;;15.75;100.00
45941;BME280;31858;46.008;8.978;2023-06-14T01:18:05;94147.34;;;15.74;100.00
45941;BME280;31858;46.008;8.978;2023-06-14T01:28:09;94126.47;;;15.61;100.00
45941;BME280;31858;46.008;8.978;2023-06-14T01:38:12;94145.25;;;15.61;100.00
45941;BME280;31858;46.008;8.978;2023-06-14T01:48:16;94171.28;;;15.64;100.00
45941;BME280;31858;46.008;8.978;2023-06-14T01:58:18;94175.16;;;15.63;100.00
45941;BME280;31858;46.008;8.978;2023-06-14T02:08:21;94177.16;;;15.59;100.00
45941;BME280;31858;46.008;8.978;2023-06-14T02:18:23;94179.41;;;15.61;100.00
45941;BME280;31858;46.008;8.978;2023-06-14T02:28:26;94183.91;;;15.68;100.00
45941;BME280;31858;46.008;8.978;2023-06-14T02:38:27;94179.41;;;15.61;100.00
45941;BME280;31858;46.008;8.978;2023-06-14T02:48:30;94155.25;;;15.61;100.00
45941;BME280;31858;46.008;8.978;2023-06-14T02:58:32;94167.22;;;15.56;100.00
45941;BME280;31858;46.008;8.978;2023-06-14T03:08:35;94162.53;;;15.60;100.00
45941;BME280;31858;46.008;8.978;2023-06-14T03:18:38;94148.56;;;15.49;100.00
45941;BME280;31858;46.008;8.978;2023-06-14T03:28:41;94111.78;;;15.46;100.00
45941;BME280;31858;46.008;8.978;2023-06-14T03:38:43;94111.09;;;15.42;100.00
45941;BME280;31858;46.008;8.978;2023-06-14T03:48:46;94098.16;;;15.37;100.00
45941;BME280;31858;46.008;8.978;2023-06-14T03:58:47;94106.84;;;15.45;100.00
45941;BME280;31858;46.008;8.978;2023-06-14T04:08:51;94125.47;;;15.32;100.00
45941;BME280;31858;46.008;8.978;2023-06-14T04:18:54;94142.94;;;15.20;100.00
45941;BME280;31858;46.008;8.978;2023-06-14T04:28:59;94167.09;;;15.20;100.00
45941;BME280;31858;46.008;8.978;2023-06-14T04:39:02;94172.28;;;15.31;100.00
45941;BME280;31858;46.008;8.978;2023-06-14T04:49:06;94188.72;;;15.33;100.00
45941;BME280;31858;46.008;8.978;2023-06-14T04:59:07;94197.13;;;15.35;100.00
45941;BME280;31858;46.008;8.978;2023-06-14T05:09:10;94198.19;;;15.41;100.00
45941;BME280;31858;46.008;8.978;2023-06-14T05:19:12;94196.25;;;15.42;100.00
45941;BME280;31858;46.008;8.978;2023-06-14T05:29:15;94196.88;;;15.49;100.00
45941;BME280;31858;46.008;8.978;2023-06-14T05:39:17;94200.25;;;15.53;100.00
45941;BME280;31858;46.008;8.978;2023-06-14T05:49:20;94193.38;;;15.52;100.00
45941;BME280;31858;46.008;8.978;2023-06-14T05:59:21;94198.91;;;15.65;100.00
45941;BME280;31858;46.008;8.978;2023-06-14T06:09:24;94217.13;;;15.77;100.00
45941;BME280;31858;46.008;8.978;2023-06-14T06:22:44;94219.31;;;15.82;100.00
45941;BME280;31858;46.008;8.978;2023-06-14T06:32:45;94220.44;;;15.85;100.00
45941;BME280;31858;46.008;8.978;2023-06-14T06:42:49;94229.19;;;15.89;100.00
45941;BME280;31858;46.008;8.978;2023-06-14T06:52:51;94233.03;;;15.88;100.00
45941;BME280;31858;46.008;8.978;2023-06-14T07:02:54;94249.09;;;16.11;100.00
45941;BME280;31858;46.008;8.978;2023-06-14T07:12:57;94266.63;;;16.19;100.00
45941;BME280;31858;46.008;8.978;2023-06-14T07:23:00;94276.63;;;16.19;100.00
45941;BME280;31858;46.008;8.978;2023-06-14T07:33:01;94283.78;;;16.25;100.00
45941;BME280;31858;46.008;8.978;2023-06-14T07:43:04;94276.41;;;16.29;100.00
45941;BME280;31858;46.008;8.978;2023-06-14T07:53:06;94246.34;;;16.35;100.00
45941;BME280;31858;46.008;8.978;2023-06-14T08:03:09;94224.56;;;16.49;100.00
45941;BME280;31858;46.008;8.978;2023-06-14T08:13:10;94203.56;;;16.60;100.00
45941;BME280;31858;46.008;8.978;2023-06-14T08:23:13;94187.72;;;16.66;100.00
45941;BME280;31858;46.008;8.978;2023-06-14T08:33:19;94185.28;;;16.71;100.00
45941;BME280;31858;46.008;8.978;2023-06-14T08:43:22;94202.81;;;16.79;100.00
45941;BME280;31858;46.008;8.978;2023-06-14T08:53:24;94186.31;;;16.77;100.00
45941;BME280;31858;46.008;8.978;2023-06-14T09:03:27;94189.69;;;16.81;100.00
45941;BME280;31858;46.008;8.978;2023-06-14T09:13:29;94176.28;;;16.94;100.00
45941;BME280;31858;46.008;8.978;2023-06-14T09:23:36;94173.44;;;17.01;100.00
45941;BME280;31858;46.008;8.978;2023-06-14T09:33:38;94161.91;;;17.17;100.00
45941;BME280;31858;46.008;8.978;2023-06-14T09:43:41;94173.66;;;17.39;100.00
45941;BME280;31858;46.008;8.978;2023-06-14T09:53:46;94167.06;;;17.56;100.00
45941;BME280;31858;46.008;8.978;2023-06-14T10:03:50;94163.00;;;17.81;100.00
45941;BME280;31858;46.008;8.978;2023-06-14T10:13:57;94153.16;;;18.03;100.00
45941;BME280;31858;46.008;8.978;2023-06-14T10:24:04;94145.41;;;18.31;100.00
45941;BME280;31858;46.008;8.978;2023-06-14T10:34:06;94139.28;;;18.55;100.00
45941;BME280;31858;46.008;8.978;2023-06-14T10:44:39;94135.84;;;18.80;100.00
45941;BME280;31858;46.008;8.978;2023-06-14T10:55:04;94128.81;;;18.96;100.00
45941;BME280;31858;46.008;8.978;2023-06-14T11:05:08;94127.38;;;19.16;100.00
45941;BME280;31858;46.008;8.978;2023-06-14T11:15:10;94113.59;;;19.36;100.00
45941;BME280;31858;46.008;8.978;2023-06-14T11:25:14;94111.13;;;19.64;100.00
45941;BME280;31858;46.008;8.978;2023-06-14T11:35:16;94104.66;;;19.83;100.00
45941;BME280;31858;46.008;8.978;2023-06-14T11:45:19;94100.19;;;19.89;100.00
45941;BME280;31858;46.008;8.978;2023-06-14T11:55:21;94086.34;;;20.09;100.00
45941;BME280;31858;46.008;8.978;2023-06-14T12:05:25;94099.56;;;20.38;100.00
45941;BME280;31858;46.008;8.978;2023-06-14T12:15:28;94087.81;;;20.32;100.00
45941;BME280;31858;46.008;8.978;2023-06-14T12:25:32;94077.41;;;20.52;100.00
45941;BME280;31858;46.008;8.978;2023-06-14T12:35:34;94074.75;;;20.70;100.00
45941;BME280;31858;46.008;8.978;2023-06-14T12:45:37;94071.19;;;21.01;100.00
45941;BME280;31858;46.008;8.978;2023-06-14T12:55:39;94065.16;;;21.06;100.00
45941;BME280;31858;46.008;8.978;2023-06-14T13:05:42;94061.44;;;21.22;100.00
45941;BME280;31858;46.008;8.978;2023-06-14T13:15:43;94061.31;;;21.43;100.00
45941;BME280;31858;46.008;8.978;2023-06-14T13:25:47;94063.13;;;21.56;100.00
45941;BME280;31858;46.008;8.978;2023-06-14T13:35:50;94054.38;;;21.70;100.00
45941;BME280;31858;46.008;8.978;2023-06-14T13:45:54;94038.19;;;21.94;100.00
45941;BME280;31858;46.008;8.978;2023-06-14T13:55:56;94045.22;;;22.19;100.00
45941;BME280;31858;46.008;8.978;2023-06-14T14:06:00;94025.56;;;22.33;100.00
45941;BME280;31858;46.008;8.978;2023-06-14T14:16:02;94035.75;;;22.47;100.00
45941;BME280;31858;46.008;8.978;2023-06-14T14:26:05;94025.28;;;22.31;100.00
45941;BME280;31858;46.008;8.978;2023-06-14T14:36:06;94013.63;;;22.39;100.00
45941;BME280;31858;46.008;8.978;2023-06-14T14:46:09;94021.84;;;22.54;100.00
45941;BME280;31858;46.008;8.978;2023-06-14T14:56:11;94025.72;;;22.62;100.00
45941;BME280;31858;46.008;8.978;2023-06-14T15:06:14;94010.56;;;22.80;100.00
45941;BME280;31858;46.008;8.978;2023-06-14T15:16:17;94019.97;;;22.69;100.00
45941;BME280;31858;46.008;8.978;2023-06-14T15:26:20;94018.00;;;22.70;100.00
45941;BME280;31858;46.008;8.978;2023-06-14T15:36:24;94010.59;;;22.70;100.00
45941;BME280;31858;46.008;8.978;2023-06-14T15:46:27;94006.94;;;22.83;100.00
45941;BME280;31858;46.008;8.978;2023-06-14T15:56:29;94008.16;;;22.82;100.00
45941;BME280;31858;46.008;8.978;2023-06-14T16:06:32;94001.81;;;22.75;100.00
45941;BME280;31858;46.008;8.978;2023-06-14T16:16:33;93999.44;;;22.68;100.00
45941;BME280;31858;46.008;8.978;2023-06-14T16:26:36;93999.22;;;22.57;100.00
45941;BME280;31858;46.008;8.978;2023-06-14T16:36:38;94004.59;;;22.66;100.00
45941;BME280;31858;46.008;8.978;2023-06-14T16:46:41;94012.16;;;22.62;100.00
45941;BME280;31858;46.008;8.978;2023-06-14T16:56:42;94019.19;;;22.45;100.00
45941;BME280;31858;46.008;8.978;2023-06-14T17:06:45;94034.91;;;22.32;100.00
45941;BME280;31858;46.008;8.978;2023-06-14T17:16:47;94045.09;;;22.13;100.00
45941;BME280;31858;46.008;8.978;2023-06-14T17:26:50;94059.78;;;21.70;100.00
45941;BME280;31858;46.008;8.978;2023-06-14T17:36:52;94084.75;;;21.19;100.00
45941;BME280;31858;46.008;8.978;2023-06-14T17:46:55;94087.13;;;20.99;100.00
45941;BME280;31858;46.008;8.978;2023-06-14T17:56:56;94107.25;;;20.79;100.00
45941;BME280;31858;46.008;8.978;2023-06-14T18:06:59;94109.31;;;20.66;100.00
45941;BME280;31858;46.008;8.978;2023-06-14T18:17:01;94110.81;;;20.58;100.00
45941;BME280;31858;46.008;8.978;2023-06-14T18:27:05;94116.13;;;20.40;100.00
45941;BME280;31858;46.008;8.978;2023-06-14T18:37:09;94128.06;;;20.30;100.00
45941;BME280;31858;46.008;8.978;2023-06-14T18:47:12;94136.41;;;20.13;100.00
45941;BME280;31858;46.008;8.978;2023-06-14T18:57:13;94147.16;;;20.04;100.00
45941;BME280;31858;46.008;8.978;2023-06-14T19:07:16;94153.44;;;20.01;100.00
45941;BME280;31858;46.008;8.978;2023-06-14T19:17:18;94163.31;;;19.95;100.00
45941;BME280;31858;46.008;8.978;2023-06-14T19:27:21;94172.63;;;19.94;100.00
45941;BME280;31858;46.008;8.978;2023-06-14T19:37:22;94197.72;;;19.95;100.00
45941;BME280;31858;46.008;8.978;2023-06-14T19:47:25;94209.59;;;19.97;100.00
45941;BME280;31858;46.008;8.978;2023-06-14T19:57:27;94228.78;;;19.90;100.00
45941;BME280;31858;46.008;8.978;2023-06-14T20:07:30;94244.28;;;19.77;100.00
45941;BME280;31858;46.008;8.978;2023-06-14T20:17:32;94251.13;;;19.56;100.00
45941;BME280;31858;46.008;8.978;2023-06-14T20:27:36;94257.19;;;19.47;100.00
45941;BME280;31858;46.008;8.978;2023-06-14T20:37:38;94270.06;;;19.31;100.00
45941;BME280;31858;46.008;8.978;2023-06-14T20:47:41;94291.25;;;19.19;100.00
45941;BME280;31858;46.008;8.978;2023-06-14T20:57:42;94303.34;;;19.28;100.00
45941;BME280;31858;46.008;8.978;2023-06-14T21:07:46;94294.50;;;19.27;100.00
45941;BME280;31858;46.008;8.978;2023-06-14T21:17:47;94306.91;;;18.99;100.00
45941;BME280;31858;46.008;8.978;2023-06-14T21:27:50;94298.44;;;18.72;100.00
45941;BME280;31858;46.008;8.978;2023-06-14T21:37:52;94305.81;;;18.55;100.00
45941;BME280;31858;46.008;8.978;2023-06-14T21:47:55;94346.78;;;18.50;100.00
45941;BME280;31858;46.008;8.978;2023-06-14T21:57:56;94368.50;;;18.30;100.00
45941;BME280;31858;46.008;8.978;2023-06-14T22:07:59;94366.38;;;17.24;100.00
45941;BME280;31858;46.008;8.978;2023-06-14T22:18:01;94346.03;;;17.03;100.00
45941;BME280;31858;46.008;8.978;2023-06-14T22:28:04;94357.66;;;16.60;100.00
45941;BME280;31858;46.008;8.978;2023-06-14T22:38:06;94405.28;;;16.40;100.00
45941;BME280;31858;46.008;8.978;2023-06-14T22:48:09;94428.81;;;15.86;100.00
45941;BME280;31858;46.008;8.978;2023-06-14T22:58:11;94408.47;;;15.85;100.00
45941;BME280;31858;46.008;8.978;2023-06-14T23:08:16;94411.16;;;15.85;100.00
45941;BME280;31858;46.008;8.978;2023-06-14T23:18:18;94409.19;;;15.89;100.00
45941;BME280;31858;46.008;8.978;2023-06-14T23:28:21;94404.91;;;15.68;100.00
45941;BME280;31858;46.008;8.978;2023-06-14T23:38:22;94413.97;;;15.51;100.00
45941;BME280;31858;46.008;8.978;2023-06-14T23:48:25;94402.81;;;15.52;100.00
45941;BME280;31858;46.008;8.978;2023-06-14T23:58:27;94401.91;;;15.62;100.00
